San Miguel (591) Station Data

Red Flag Warning: No
Fire Weather Zone: 250
SDGE Region: Metro
Lat/Lon: 32.685/-116.98

Observations

Time Wind Speed/Gust Temp(F) RH Fuel Moist Fuel Temp(F) Dewpt(F) Tmax(F) Tmin(F) Accum Precip 10-min Precip SL Press(mb)
6/27 5:00pm 288 6 G 10 79° 44% - - 56° 83.5° 65.4° - - 1012.0
6/27 4:50pm 278 7 G 10 80° 43% - - 55° 83.5° 65.4° - - 1012.0
6/27 4:40pm 281 7 G 9 80° 42% - - 55° 83.5° 65.4° - - 1012.0
6/27 4:30pm 271 7 G 10 81° 40% - - 54° 83.5° 65.4° - - 1012.0
6/27 4:20pm 270 6 G 10 81° 40% - - 54° 83.5° 65.4° - - 1012.0
6/27 4:10pm 278 6 G 9 80° 41% - - 54° 83.5° 65.4° - - 1012.0
6/27 4:00pm 255 6 G 11 80° 41% - - 54° 83.5° 65.4° - - 1012.0
6/27 3:50pm 247 7 G 12 79° 43% - - 55° 83.5° 65.4° - - 1012.0
6/27 3:40pm 279 6 G 11 79° 42% - - 54° 83.5° 65.4° - - 1012.0
6/27 3:30pm 276 6 G 11 79° 43% - - 55° 83.5° 65.4° - - 1012.0
6/27 3:20pm 274 7 G 10 79° 43% - - 54° 83.5° 65.4° - - 1013.0
6/27 3:10pm 249 7 G 11 78° 44% - - 55° 83.5° 65.4° - - 1013.0
6/27 3:00pm 259 7 G 12 78° 46% - - 56° 83.5° 65.4° - - 1013.0
6/27 2:50pm 249 8 G 12 77° 47% - - 55° 83.5° 65.4° - - 1013.0
6/27 2:40pm 260 9 G 14 78° 47% - - 56° 83.5° 65.4° - - 1013.0
6/27 2:30pm 270 9 G 15 79° 45% - - 56° 83.5° 65.4° - - 1013.0
6/27 2:20pm 264 9 G 13 79° 42% - - 54° 83.5° 65.4° - - 1013.0
6/27 2:10pm 261 8 G 12 79° 43% - - 55° 83.5° 65.4° - - 1013.0
6/27 2:00pm 274 9 G 13 79° 45% - - 56° 83.5° 65.4° - - 1013.0
6/27 1:50pm 268 9 G 12 80° 45% - - 57° 83.5° 65.4° - - 1013.0
6/27 1:40pm 266 8 G 12 80° 46% - - 57° 83.5° 65.4° - - 1013.0
6/27 1:30pm 270 8 G 11 80° 45% - - 57° 83.5° 65.4° - - 1013.0
6/27 1:20pm 260 7 G 11 80° 46% - - 57° 83.5° 65.4° - - 1013.0
6/27 1:10pm 263 7 G 10 79° 47% - - 57° 83.5° 65.4° - - 1013.0
6/27 1:00pm 273 7 G 11 78° 48% - - 57° 83.5° 65.4° - - 1013.0
6/27 12:50pm 270 8 G 12 79° 48% - - 58° 83.5° 65.4° - - 1013.0
6/27 12:40pm 273 8 G 12 79° 48% - - 58° 83.5° 65.4° - - 1013.0
6/27 12:30pm 272 9 G 15 80° 46% - - 57° 83.5° 65.4° - - 1013.0
6/27 12:20pm 267 9 G 11 81° 43% - - 56° 83.5° 65.4° - - 1013.0
6/27 12:10pm 265 9 G 12 81° 39% - - 54° 83.5° 65.4° - - 1013.0
6/27 12:00pm 262 8 G 11 82° 38% - - 53° 83.5° 65.4° - - 1013.0
6/27 11:50am 260 7 G 10 82° 38% - - 54° 83.5° 65.4° - - 1013.0
6/27 11:40am 260 6 G 10 81° 42% - - 56° 83.5° 65.4° - - 1013.0
6/27 11:30am 263 7 G 11 82° 41% - - 56° 83.5° 65.4° - - 1013.0
6/27 11:20am 267 7 G 11 82° 39% - - 55° 83.5° 65.4° - - 1013.0
6/27 11:10am 262 5 G 9 83° 39% - - 55° 83.5° 65.4° - - 1013.0
6/27 11:00am 251 6 G 8 82° 44% - - 57° 82.5° 65.4° - - 1013.0
6/27 10:50am 266 6 G 10 81° 45% - - 58° 81.9° 65.4° - - 1013.0
6/27 10:40am 263 7 G 11 81° 46% - - 58° 81.2° 65.4° - - 1013.0
6/27 10:30am 268 6 G 10 80° 47% - - 58° 81.2° 65.4° - - 1013.0
6/27 10:20am 270 5 G 8 80° 48% - - 58° 81.2° 65.4° - - 1013.0
6/27 10:10am 247 5 G 7 79° 48% - - 58° 81.2° 65.4° - - 1013.0
6/27 10:00am 264 6 G 8 80° 48% - - 58° 81.2° 65.4° - - 1013.0
6/27 9:50am 264 5 G 10 80° 39% - - 52° 81.2° 65.4° - - 1013.0
6/27 9:40am 266 5 G 8 81° 28% - - 45° 81.2° 65.4° - - 1013.0
6/27 9:30am 280 4 G 8 81° 25% - - 41° 81.2° 65.4° - - 1013.0
6/27 9:20am 278 4 G 7 79° 30% - - 45° 80° 65.4° - - 1013.0
6/27 9:10am 263 4 G 7 78° 34% - - 48° 78.8° 65.4° - - 1013.0
6/27 9:00am 254 4 G 6 78° 36% - - 49° 78.1° 65.4° - - 1013.0
6/27 8:50am 244 3 G 5 77° 38% - - 50° 78° 65.4° - - 1013.0
6/27 8:40am 253 3 G 5 76° 36% - - 48° 77.1° 65.4° - - 1013.0
6/27 8:30am 255 3 G 5 76° 37% - - 48° 77.1° 65.4° - - 1013.0
6/27 8:20am 298 2 G 3 76° 39% - - 49° 77.1° 65.4° - - 1013.0
6/27 8:10am 347 1 G 3 74° 41% - - 49° 77.1° 65.4° - - 1013.0
6/27 8:00am 357 2 G 3 73° 44% - - 50° 77.1° 65.4° - - 1013.0
6/27 7:50am 323 1 G 3 72° 56% - - 55° 77.1° 65.4° - - 1013.0
6/27 7:40am 220 1 G 2 70° 62% - - 56° 77.1° 65.4° - - 1013.0
6/27 7:30am 215 0 G 1 69° 62% - - 56° 77.1° 65.4° - - 1013.0
6/27 7:20am 204 1 G 1 69° 63% - - 56° 77.1° 65.4° - - 1013.0
6/27 7:10am 226 1 G 2 68° 65% - - 56° 77.1° 65.4° - - 1013.0
6/27 7:00am 229 0 G 1 68° 66% - - 56° 77.1° 65.4° - - 1013.0
6/27 6:50am 0 0 G 0 66° 69% - - 56° 77.1° 65.4° - - 1013.0
6/27 6:40am 299 1 G 1 66° 70% - - 56° 77.1° 65.4° - - 1013.0
6/27 6:30am 289 1 G 1 67° 69% - - 56° 77.1° 65.4° - - 1013.0
6/27 6:20am 7 1 G 2 67° 68% - - 56° 77.1° 65.4° - - 1012.0
6/27 6:10am 105 1 G 2 66° 71% - - 57° 77.1° 65.4° - - 1012.0
6/27 6:00am 154 2 G 3 66° 70% - - 56° 77.1° 65.4° - - 1012.0
6/27 5:50am 153 1 G 2 66° 66% - - 54° 77.1° 65.5° - - 1012.0
6/27 5:40am 210 0 G 1 66° 66% - - 54° 77.1° 65.7° - - 1012.0
6/27 5:30am 195 0 G 1 67° 69% - - 56° 77.1° 66° - - 1018.0
6/27 5:20am 196 0 G 1 67° 67% - - 56° 77.1° 66.3° - - 1018.0
6/27 5:10am 24 2 G 3 68° 67% - - 57° 77.1° 66.3° - - 1018.0
6/27 5:00am 20 2 G 2 68° 68% - - 57° 77.1° 66.3° - - 1018.0
6/27 4:50am 15 3 G 4 68° 70% - - 58° 77.1° 66.3° - - 1018.0
6/27 4:40am 44 4 G 4 67° 73% - - 59° 77.1° 66.3° - - 1018.0
6/27 4:30am 38 3 G 4 67° 72% - - 57° 77.1° 66.3° - - 1019.0
6/27 4:20am 62 0 G 2 67° 70% - - 57° 77.1° 66.7° - - 1018.0
6/27 4:10am 149 0 G 2 67° 72% - - 58° 77.1° 66.9° - - 1017.0
6/27 4:00am 0 0 G 0 67° 69% - - 57° 77.1° 67.1° - - 1016.0
6/27 3:50am 232 0 G 1 68° 65% - - 56° 77.1° 67.1° - - 1016.0
6/27 3:40am 223 0 G 1 68° 64% - - 56° 77.1° 67.1° - - 1015.0
6/27 3:30am 195 0 G 1 68° 70% - - 58° 77.1° 67.1° - - 1015.0
6/27 3:20am 190 0 G 1 67° 72% - - 58° 77.1° 67.1° - - 1015.0
6/27 3:10am 173 1 G 2 68° 69% - - 57° 77.1° 67.4° - - 1015.0
6/27 3:00am 44 2 G 4 68° 71% - - 58° 77.1° 67.5° - - 1015.0
6/27 2:50am 33 3 G 4 69° 70% - - 59° 77.1° 68.1° - - 1015.0
6/27 2:40am 102 1 G 2 70° 64% - - 57° 77.1° 68.1° - - 1015.0
6/27 2:30am 72 1 G 2 68° 71% - - 59° 77.1° 68.1° - - 1015.0
6/27 2:20am 15 0 G 2 69° 69% - - 59° 77.1° 68.7° - - 1015.0
6/27 2:10am 205 0 G 1 70° 64% - - 57° 77.1° 69.1° - - 1015.0
6/27 2:00am 166 0 G 1 70° 67% - - 59° 77.1° 69.1° - - 1015.0
6/27 1:50am 157 0 G 1 70° 68% - - 59° 77.1° 69.1° - - 1015.0
6/27 1:40am 212 0 G 1 70° 69% - - 59° 77.1° 69.1° - - 1015.0
6/27 1:30am 214 0 G 1 70° 69% - - 59° 77.1° 69.1° - - 1014.0
6/27 1:20am 214 0 G 1 70° 64% - - 57° 77.1° 69.1° - - 1014.0
6/27 1:10am 232 0 G 2 70° 66% - - 58° 77.1° 69.1° - - 1014.0
6/27 1:00am 281 1 G 3 71° 63% - - 58° 77.1° 69.7° - - 1014.0
6/27 12:50am 153 2 G 3 70° 68% - - 59° 77.1° 69.7° - - 1014.0
6/27 12:40am 182 1 G 2 71° 68% - - 60° 77.1° 69.7° - - 1014.0
6/27 12:30am 240 1 G 4 74° 55% - - 56° 77.1° 71.8° - - 1014.0
6/27 12:20am 43 4 G 5 76° 41% - - 51° 77.1° 72.4° - - 1014.0
6/27 12:10am 39 3 G 5 74° 51% - - 55° 76.3° 72.4° - - 1014.0
6/27 12:00am 25 4 G 6 75° 51% - - 56° 86.9° 64° - - 1014.0
6/26 11:50pm 4 5 G 7 79° 39% - - 51° 86.9° 64° - - 1014.0
6/26 11:40pm 53 5 G 8 80° 28% - - 43° 86.9° 64° - - 1014.0
6/26 11:30pm 45 5 G 9 76° 41% - - 50° 86.9° 64° - - 1014.0
6/26 11:20pm 36 4 G 7 73° 58% - - 57° 86.9° 64° - - 1014.0
6/26 11:10pm 16 3 G 4 71° 71% - - 61° 86.9° 64° - - 1014.0
6/26 11:00pm 19 4 G 6 70° 75% - - 61° 86.9° 64° - - 1014.0
6/26 10:50pm 31 6 G 7 70° 75% - - 62° 86.9° 64° - - 1014.0
6/26 10:40pm 25 7 G 8 71° 72% - - 61° 86.9° 64° - - 1014.0
6/26 10:30pm 46 5 G 6 72° 68% - - 61° 86.9° 64° - - 1014.0
6/26 10:20pm 70 1 G 4 69° 74% - - 61° 86.9° 64° - - 1015.0
6/26 10:10pm 239 0 G 0 70° 73% - - 61° 86.9° 64° - - 1015.0
6/26 10:00pm 243 0 G 1 70° 72% - - 60° 86.9° 64° - - 1014.0
6/26 9:50pm 0 0 G 0 71° 69% - - 60° 86.9° 64° - - 1014.0
6/26 9:40pm 0 0 G 0 71° 67% - - 59° 86.9° 64° - - 1014.0
6/26 9:30pm 5 0 G 1 72° 65% - - 59° 86.9° 64° - - 1013.0
6/26 9:20pm 12 2 G 3 72° 65% - - 59° 86.9° 64° - - 1013.0
6/26 9:10pm 77 1 G 2 71° 66% - - 59° 86.9° 64° - - 1013.0
6/26 9:00pm 255 0 G 1 71° 66% - - 59° 86.9° 64° - - 1018.0
6/26 8:50pm 153 0 G 1 71° 66% - - 59° 86.9° 64° - - 1020.0
6/26 8:40pm 275 1 G 2 72° 66% - - 60° 86.9° 64° - - 1017.0
6/26 8:30pm 269 1 G 2 72° 64% - - 59° 86.9° 64° - - 1016.0
6/26 8:20pm 240 1 G 2 72° 64% - - 59° 86.9° 64° - - 1014.0
6/26 8:10pm 254 2 G 3 73° 63% - - 60° 86.9° 64° - - 1013.0
6/26 8:00pm 266 3 G 3 74° 61% - - 60° 86.9° 64° - - 1013.0
6/26 7:50pm 269 3 G 4 74° 60% - - 59° 86.9° 64° - - 1014.0
6/26 7:40pm 278 3 G 5 75° 58% - - 59° 86.9° 64° - - 1014.0
6/26 7:30pm 261 4 G 5 76° 56% - - 59° 86.9° 64° - - 1014.0
6/26 7:20pm 264 4 G 5 77° 54% - - 59° 86.9° 64° - - 1015.0
6/26 7:10pm 268 4 G 5 78° 52% - - 59° 86.9° 64° - - 1015.0
6/26 7:00pm 271 4 G 6 78° 51% - - 59° 86.9° 64° - - 1015.0
6/26 6:50pm 264 4 G 6 78° 50% - - 58° 86.9° 64° - - 1015.0
6/26 6:40pm 258 4 G 7 79° 49% - - 58° 86.9° 64° - - 1014.0
6/26 6:30pm 261 5 G 8 79° 48% - - 58° 86.9° 64° - - 1015.0
6/26 6:20pm 267 6 G 9 80° 47% - - 58° 86.9° 64° - - 1014.0
6/26 6:10pm 270 6 G 9 81° 45% - - 58° 86.9° 64° - - 1014.0
6/26 6:00pm 264 6 G 9 81° 45% - - 58° 86.9° 64° - - 1014.0
6/26 5:50pm 255 5 G 8 81° 45% - - 58° 86.9° 64° - - 1014.0
6/26 5:40pm 260 5 G 8 82° 45% - - 58° 86.9° 64° - - 1014.0
6/26 5:30pm 258 5 G 9 81° 46% - - 58° 86.9° 64° - - 1015.0
6/26 5:20pm 282 5 G 9 81° 46% - - 59° 86.9° 64° - - 1015.0
6/26 5:10pm 269 6 G 9 81° 46% - - 59° 86.9° 64° - - 1015.0
6/26 5:00pm 268 7 G 10 82° 44% - - 58° 86.9° 64° - - 1015.0
6/26 4:50pm 280 8 G 10 83° 43% - - 58° 86.9° 64° - - 1015.0
6/26 4:40pm 280 6 G 10 83° 43% - - 58° 86.9° 64° - - 1015.0
6/26 4:30pm 283 6 G 10 84° 42% - - 58° 86.9° 64° - - 1015.0
6/26 4:20pm 296 6 G 8 83° 43% - - 58° 86.9° 64° - - 1015.0
6/26 4:10pm 280 7 G 9 84° 43% - - 59° 86.9° 64° - - 1015.0
6/26 4:00pm 260 8 G 11 84° 43% - - 59° 86.9° 64° - - 1015.0
6/26 3:50pm 273 8 G 12 84° 42% - - 59° 86.9° 64° - - 1015.0
6/26 3:40pm 275 8 G 12 84° 43% - - 59° 86.9° 64° - - 1015.0
6/26 3:30pm 277 8 G 11 84° 43% - - 59° 86.9° 64° - - 1015.0
6/26 3:20pm 266 8 G 11 84° 42% - - 58° 86.9° 64° - - 1015.0
6/26 3:10pm 265 7 G 10 84° 41% - - 57° 86.9° 64° - - 1015.0
6/26 3:00pm 269 7 G 11 84° 39% - - 56° 86.9° 64° - - 1015.0
6/26 2:50pm 268 7 G 11 83° 40% - - 56° 86.9° 64° - - 1016.0
6/26 2:40pm 275 8 G 12 84° 39% - - 56° 86.9° 64° - - 1016.0
6/26 2:30pm 268 8 G 11 84° 39% - - 56° 86.9° 64° - - 1016.0
6/26 2:20pm 274 7 G 11 85° 37% - - 56° 86.9° 64° - - 1016.0
6/26 2:10pm 276 6 G 10 86° 36% - - 56° 86.9° 64° - - 1016.0
6/26 2:00pm 286 5 G 9 86° 36% - - 56° 86.5° 64° - - 1016.0
6/26 1:50pm 281 5 G 9 86° 36% - - 55° 86.2° 64° - - 1016.0
6/26 1:40pm 275 4 G 9 85° 36% - - 55° 85.2° 64° - - 1016.0
6/26 1:30pm 258 5 G 10 84° 37% - - 55° 84.4° 64° - - 1016.0
6/26 1:20pm 249 4 G 8 83° 41% - - 57° 83.6° 64° - - 1016.0
6/26 1:10pm 248 5 G 12 82° 44% - - 58° 82.2° 64° - - 1016.0
6/26 1:00pm 260 6 G 9 81° 46% - - 58° 81.8° 64° - - 1016.0
6/26 12:50pm 279 5 G 9 81° 47% - - 58° 81.6° 64° - - 1016.0
6/26 12:40pm 271 5 G 11 80° 49% - - 59° 80.1° 64° - - 1016.0
6/26 12:30pm 265 6 G 10 79° 50% - - 59° 80° 64° - - 1017.0
6/26 12:20pm 267 5 G 10 79° 50% - - 59° 80° 64° - - 1017.0
6/26 12:10pm 262 6 G 10 78° 51% - - 59° 79° 64° - - 1017.0
6/26 12:00pm 265 5 G 10 78° 53% - - 59° 78.6° 64° - - 1017.0
6/26 11:50am 271 6 G 12 77° 55% - - 59° 77.2° 64° - - 1017.0
6/26 11:40am 273 5 G 10 76° 56% - - 59° 76.7° 64° - - 1017.0
6/26 11:30am 259 5 G 9 76° 57% - - 59° 76.6° 64° - - 1017.0
6/26 11:20am 265 6 G 9 75° 58% - - 59° 76.6° 64° - - 1017.0
6/26 11:10am 268 6 G 10 75° 59% - - 60° 76.6° 64° - - 1017.0
6/26 11:00am 251 6 G 9 75° 59% - - 60° 76.6° 64° - - 1017.0
6/26 10:50am 260 6 G 10 75° 60% - - 60° 76.6° 64° - - 1017.0
6/26 10:40am 267 7 G 12 74° 61% - - 60° 76.6° 64° - - 1017.0
6/26 10:30am 266 6 G 10 74° 61% - - 60° 76.6° 64° - - 1017.0
6/26 10:20am 266 7 G 10 74° 62% - - 60° 76.6° 64° - - 1017.0
6/26 10:10am 264 6 G 9 73° 62% - - 60° 76.6° 64° - - 1017.0
6/26 10:00am 258 6 G 9 73° 63% - - 60° 76.6° 64° - - 1017.0
6/26 9:50am 278 6 G 10 73° 63% - - 59° 76.6° 64° - - 1017.0
6/26 9:40am 267 8 G 11 73° 63% - - 60° 76.6° 64° - - 1017.0
6/26 9:30am 272 7 G 11 75° 61% - - 60° 76.6° 64° - - 1016.0
6/26 9:20am 267 7 G 10 76° 59% - - 60° 76.6° 64° - - 1016.0
6/26 9:10am 263 8 G 10 76° 57% - - 60° 76.6° 64° - - 1016.0
6/26 9:00am 274 6 G 9 76° 56% - - 59° 76.6° 64° - - 1016.0
6/26 8:50am 262 5 G 7 76° 55% - - 59° 76.6° 64° - - 1016.0
6/26 8:40am 270 4 G 6 76° 55% - - 59° 76.3° 64° - - 1016.0
6/26 8:30am 267 2 G 4 75° 56% - - 59° 76° 64° - - 1015.0
6/26 8:20am 270 3 G 4 75° 56% - - 58° 75.2° 64° - - 1016.0
6/26 8:10am 259 3 G 6 74° 57% - - 58° 74.7° 64° - - 1018.0
6/26 8:00am 242 2 G 4 73° 62% - - 59° 73.6° 64° - - 1014.0
6/26 7:50am 233 2 G 3 72° 66% - - 60° 73.3° 64° - - 1021.0
6/26 7:40am 246 2 G 3 73° 62% - - 59° 73.3° 64° - - 1033.0
6/26 7:30am 192 0 G 1 72° 64% - - 59° 73.3° 64° - - 1031.0
6/26 7:20am 216 1 G 2 71° 66% - - 59° 73.3° 64° - - 1021.0
6/26 7:10am 358 1 G 3 72° 62% - - 58° 73.3° 64° - - 1021.0
6/26 7:00am 44 2 G 3 72° 56% - - 56° 73.3° 64° - - 1015.0
6/26 6:50am 164 1 G 1 70° 63% - - 57° 72.1° 64° - - 1014.0
6/26 6:40am 179 1 G 1 70° 65% - - 57° 72.1° 64° - - 1014.0
6/26 6:30am 162 1 G 2 69° 67% - - 57° 72.1° 64° - - 1014.0
6/26 6:20am 161 2 G 3 70° 60% - - 56° 72.1° 64° - - 1014.0
6/26 6:10am 48 3 G 5 72° 57% - - 56° 72.1° 64° - - 1014.0
6/26 6:00am 68 4 G 5 69° 68% - - 58° 71.1° 64° - - 1014.0